sensor_id;sensor_type;location;lat;lon;timestamp;pressure;altitude;pressure_sealevel;temperature;humidity
12536;BME280;6334;48.696;2.114;2023-04-15T00:01:15;98821.17;;;9.29;81.73
12536;BME280;6334;48.696;2.114;2023-04-15T00:03:46;98821.36;;;9.35;80.89
12536;BME280;6334;48.696;2.114;2023-04-15T00:06:16;98823.16;;;9.27;81.79
12536;BME280;6334;48.696;2.114;2023-04-15T00:08:47;98816.49;;;9.14;82.07
12536;BME280;6334;48.696;2.114;2023-04-15T00:11:17;98812.52;;;9.17;82.76
12536;BME280;6334;48.696;2.114;2023-04-15T00:13:48;98809.61;;;9.30;82.15
12536;BME280;6334;48.696;2.114;2023-04-15T00:16:18;98812.65;;;9.21;81.82
12536;BME280;6334;48.696;2.114;2023-04-15T00:18:49;98808.77;;;9.09;83.13
12536;BME280;6334;48.696;2.114;2023-04-15T00:21:19;98806.55;;;9.39;81.77
12536;BME280;6334;48.696;2.114;2023-04-15T00:23:49;98802.36;;;9.34;81.57
12536;BME280;6334;48.696;2.114;2023-04-15T00:26:20;98796.16;;;9.36;81.93
12536;BME280;6334;48.696;2.114;2023-04-15T00:28:50;98799.87;;;9.12;82.99
12536;BME280;6334;48.696;2.114;2023-04-15T00:31:21;98796.61;;;9.10;83.24
12536;BME280;6334;48.696;2.114;2023-04-15T00:33:51;98794.63;;;9.21;82.82
12536;BME280;6334;48.696;2.114;2023-04-15T00:36:22;98796.04;;;9.43;81.75
12536;BME280;6334;48.696;2.114;2023-04-15T00:38:52;98787.97;;;9.17;82.54
12536;BME280;6334;48.696;2.114;2023-04-15T00:41:23;98787.38;;;9.08;83.58
12536;BME280;6334;48.696;2.114;2023-04-15T00:43:53;98783.27;;;9.16;82.80
12536;BME280;6334;48.696;2.114;2023-04-15T00:46:24;98783.50;;;9.07;83.69
12536;BME280;6334;48.696;2.114;2023-04-15T00:48:54;98777.11;;;9.32;82.05
12536;BME280;6334;48.696;2.114;2023-04-15T00:51:24;98772.30;;;9.40;81.49
12536;BME280;6334;48.696;2.114;2023-04-15T00:53:55;98772.34;;;9.42;82.45
12536;BME280;6334;48.696;2.114;2023-04-15T00:56:25;98767.13;;;9.36;81.80
12536;BME280;6334;48.696;2.114;2023-04-15T00:58:56;98765.36;;;9.18;83.36
12536;BME280;6334;48.696;2.114;2023-04-15T01:01:26;98764.03;;;9.27;82.77
12536;BME280;6334;48.696;2.114;2023-04-15T01:03:57;98760.91;;;9.10;83.34
12536;BME280;6334;48.696;2.114;2023-04-15T01:06:27;98752.92;;;9.17;83.39
12536;BME280;6334;48.696;2.114;2023-04-15T01:08:58;98752.44;;;8.98;83.61
12536;BME280;6334;48.696;2.114;2023-04-15T01:11:28;98752.96;;;9.16;83.74
12536;BME280;6334;48.696;2.114;2023-04-15T01:13:58;98751.79;;;9.01;83.76
12536;BME280;6334;48.696;2.114;2023-04-15T01:16:29;98746.02;;;8.93;83.98
12536;BME280;6334;48.696;2.114;2023-04-15T01:18:59;98745.42;;;8.68;85.31
12536;BME280;6334;48.696;2.114;2023-04-15T01:21:30;98750.73;;;8.65;85.82
12536;BME280;6334;48.696;2.114;2023-04-15T01:24:00;98744.16;;;8.79;85.49
12536;BME280;6334;48.696;2.114;2023-04-15T01:26:31;98743.78;;;8.80;86.28
12536;BME280;6334;48.696;2.114;2023-04-15T01:29:01;98747.36;;;8.80;86.08
12536;BME280;6334;48.696;2.114;2023-04-15T01:31:32;98759.88;;;8.73;87.03
12536;BME280;6334;48.696;2.114;2023-04-15T01:34:02;98756.84;;;9.01;85.67
12536;BME280;6334;48.696;2.114;2023-04-15T01:36:33;98742.39;;;8.89;85.96
12536;BME280;6334;48.696;2.114;2023-04-15T01:39:03;98756.86;;;8.79;86.65
12536;BME280;6334;48.696;2.114;2023-04-15T01:41:34;98763.18;;;8.84;86.38
12536;BME280;6334;48.696;2.114;2023-04-15T01:44:05;98770.27;;;8.99;85.83
12536;BME280;6334;48.696;2.114;2023-04-15T01:46:36;98770.33;;;8.80;86.64
12536;BME280;6334;48.696;2.114;2023-04-15T01:49:06;98768.17;;;8.83;86.08
12536;BME280;6334;48.696;2.114;2023-04-15T01:51:36;98778.09;;;8.79;86.24
12536;BME280;6334;48.696;2.114;2023-04-15T01:54:07;98784.64;;;8.81;86.09
12536;BME280;6334;48.696;2.114;2023-04-15T01:56:37;98799.31;;;8.95;84.77
12536;BME280;6334;48.696;2.114;2023-04-15T01:59:08;98796.92;;;8.81;85.17
12536;BME280;6334;48.696;2.114;2023-04-15T02:01:38;98787.15;;;8.83;84.89
12536;BME280;6334;48.696;2.114;2023-04-15T02:04:09;98796.32;;;8.89;84.67
12536;BME280;6334;48.696;2.114;2023-04-15T02:06:39;98792.11;;;8.61;85.08
12536;BME280;6334;48.696;2.114;2023-04-15T02:09:10;98795.13;;;8.73;84.76
12536;BME280;6334;48.696;2.114;2023-04-15T02:11:40;98798.30;;;8.82;84.08
12536;BME280;6334;48.696;2.114;2023-04-15T02:14:10;98802.86;;;8.75;84.25
12536;BME280;6334;48.696;2.114;2023-04-15T02:16:41;98799.57;;;8.84;83.74
12536;BME280;6334;48.696;2.114;2023-04-15T02:19:11;98809.50;;;8.92;83.54
12536;BME280;6334;48.696;2.114;2023-04-15T02:21:42;98816.14;;;8.79;83.31
12536;BME280;6334;48.696;2.114;2023-04-15T02:24:12;98810.61;;;8.37;84.54
12536;BME280;6334;48.696;2.114;2023-04-15T02:26:43;98809.01;;;8.57;83.42
12536;BME280;6334;48.696;2.114;2023-04-15T02:29:13;98812.47;;;8.62;82.67
12536;BME280;6334;48.696;2.114;2023-04-15T02:31:44;98821.39;;;8.49;82.85
12536;BME280;6334;48.696;2.114;2023-04-15T02:34:16;98821.57;;;8.73;82.24
12536;BME280;6334;48.696;2.114;2023-04-15T02:36:46;98831.60;;;8.81;81.77
12536;BME280;6334;48.696;2.114;2023-04-15T02:39:16;98827.13;;;8.52;83.44
12536;BME280;6334;48.696;2.114;2023-04-15T02:41:47;98835.41;;;8.73;82.12
12536;BME280;6334;48.696;2.114;2023-04-15T02:44:17;98838.72;;;8.60;82.20
12536;BME280;6334;48.696;2.114;2023-04-15T02:46:48;98838.64;;;8.30;84.06
12536;BME280;6334;48.696;2.114;2023-04-15T02:49:18;98844.70;;;8.17;83.62
12536;BME280;6334;48.696;2.114;2023-04-15T02:51:49;98857.75;;;8.19;83.47
12536;BME280;6334;48.696;2.114;2023-04-15T02:54:19;98873.84;;;8.30;82.99
12536;BME280;6334;48.696;2.114;2023-04-15T02:56:50;98869.41;;;8.49;82.33
12536;BME280;6334;48.696;2.114;2023-04-15T02:59:20;98865.83;;;8.17;83.27
12536;BME280;6334;48.696;2.114;2023-04-15T03:01:51;98882.38;;;8.42;82.61
12536;BME280;6334;48.696;2.114;2023-04-15T03:04:21;98867.66;;;8.12;83.91
12536;BME280;6334;48.696;2.114;2023-04-15T03:06:51;98877.75;;;8.30;82.71
12536;BME280;6334;48.696;2.114;2023-04-15T03:09:22;98891.53;;;8.27;81.88
12536;BME280;6334;48.696;2.114;2023-04-15T03:11:52;98887.65;;;8.15;81.71
12536;BME280;6334;48.696;2.114;2023-04-15T03:14:23;98893.22;;;8.25;82.80
12536;BME280;6334;48.696;2.114;2023-04-15T03:16:53;98892.38;;;8.11;82.73
12536;BME280;6334;48.696;2.114;2023-04-15T03:19:24;98900.98;;;8.32;82.17
12536;BME280;6334;48.696;2.114;2023-04-15T03:21:55;98901.92;;;8.15;81.87
12536;BME280;6334;48.696;2.114;2023-04-15T03:24:26;98904.13;;;8.28;81.57
12536;BME280;6334;48.696;2.114;2023-04-15T03:26:56;98914.29;;;8.33;81.14
12536;BME280;6334;48.696;2.114;2023-04-15T03:29:27;98910.48;;;8.13;82.35
12536;BME280;6334;48.696;2.114;2023-04-15T03:31:58;98922.78;;;8.19;82.40
12536;BME280;6334;48.696;2.114;2023-04-15T03:34:29;98934.89;;;8.26;81.88
12536;BME280;6334;48.696;2.114;2023-04-15T03:36:59;98934.77;;;8.00;82.45
12536;BME280;6334;48.696;2.114;2023-04-15T03:39:29;98933.06;;;8.06;82.57
12536;BME280;6334;48.696;2.114;2023-04-15T03:42:00;98938.51;;;8.06;82.17
12536;BME280;6334;48.696;2.114;2023-04-15T03:44:30;98939.13;;;8.22;82.15
12536;BME280;6334;48.696;2.114;2023-04-15T03:47:02;98941.81;;;8.23;81.66
12536;BME280;6334;48.696;2.114;2023-04-15T03:49:32;98940.87;;;8.13;82.85
12536;BME280;6334;48.696;2.114;2023-04-15T03:52:03;98939.36;;;8.18;82.13
12536;BME280;6334;48.696;2.114;2023-04-15T03:54:33;98943.02;;;7.91;82.96
12536;BME280;6334;48.696;2.114;2023-04-15T03:57:04;98942.91;;;8.14;82.15
12536;BME280;6334;48.696;2.114;2023-04-15T03:59:34;98943.77;;;8.00;82.61
12536;BME280;6334;48.696;2.114;2023-04-15T04:02:04;98953.83;;;8.16;82.45
12536;BME280;6334;48.696;2.114;2023-04-15T04:04:35;98940.08;;;8.03;83.52
12536;BME280;6334;48.696;2.114;2023-04-15T04:07:05;98958.76;;;8.38;82.17
12536;BME280;6334;48.696;2.114;2023-04-15T04:09:36;98954.28;;;8.14;83.23
12536;BME280;6334;48.696;2.114;2023-04-15T04:12:06;98948.95;;;7.81;84.15
12536;BME280;6334;48.696;2.114;2023-04-15T04:14:37;98952.94;;;8.11;83.37
12536;BME280;6334;48.696;2.114;2023-04-15T04:17:07;98959.36;;;8.07;83.26
12536;BME280;6334;48.696;2.114;2023-04-15T04:19:38;98957.19;;;8.22;83.00
12536;BME280;6334;48.696;2.114;2023-04-15T04:22:08;98951.47;;;8.26;83.33
12536;BME280;6334;48.696;2.114;2023-04-15T04:24:38;98965.30;;;8.13;83.51
12536;BME280;6334;48.696;2.114;2023-04-15T04:27:09;98961.18;;;8.00;84.22
12536;BME280;6334;48.696;2.114;2023-04-15T04:29:39;98971.27;;;7.99;83.63
12536;BME280;6334;48.696;2.114;2023-04-15T04:32:10;98967.62;;;8.13;83.00
12536;BME280;6334;48.696;2.114;2023-04-15T04:34:40;98975.69;;;7.81;84.72
12536;BME280;6334;48.696;2.114;2023-04-15T04:37:11;98988.41;;;7.86;84.85
12536;BME280;6334;48.696;2.114;2023-04-15T04:39:41;98977.98;;;8.08;83.83
12536;BME280;6334;48.696;2.114;2023-04-15T04:42:12;98981.34;;;8.01;84.04
12536;BME280;6334;48.696;2.114;2023-04-15T04:44:42;98976.05;;;7.88;84.46
12536;BME280;6334;48.696;2.114;2023-04-15T04:47:13;98991.30;;;7.92;84.47
12536;BME280;6334;48.696;2.114;2023-04-15T04:49:43;98987.48;;;8.02;84.01
12536;BME280;6334;48.696;2.114;2023-04-15T04:52:13;99000.06;;;8.14;83.45
12536;BME280;6334;48.696;2.114;2023-04-15T04:54:44;99002.11;;;7.84;84.56
12536;BME280;6334;48.696;2.114;2023-04-15T04:57:14;99012.89;;;7.97;84.30
12536;BME280;6334;48.696;2.114;2023-04-15T04:59:46;99010.81;;;7.89;84.10
12536;BME280;6334;48.696;2.114;2023-04-15T05:02:17;99017.12;;;8.07;83.80
12536;BME280;6334;48.696;2.114;2023-04-15T05:04:47;99023.84;;;8.02;84.04
12536;BME280;6334;48.696;2.114;2023-04-15T05:07:19;99036.16;;;8.07;84.12
12536;BME280;6334;48.696;2.114;2023-04-15T05:09:49;99041.70;;;8.07;83.75
12536;BME280;6334;48.696;2.114;2023-04-15T05:12:20;99042.59;;;8.23;83.41
12536;BME280;6334;48.696;2.114;2023-04-15T05:14:50;99043.73;;;8.02;83.53
12536;BME280;6334;48.696;2.114;2023-04-15T05:17:20;99049.59;;;7.86;84.57
12536;BME280;6334;48.696;2.114;2023-04-15T05:19:51;99056.37;;;7.98;83.93
12536;BME280;6334;48.696;2.114;2023-04-15T05:22:21;99050.73;;;8.08;83.73
12536;BME280;6334;48.696;2.114;2023-04-15T05:24:52;99056.75;;;8.28;83.18
12536;BME280;6334;48.696;2.114;2023-04-15T05:27:22;99062.13;;;7.95;84.16
12536;BME280;6334;48.696;2.114;2023-04-15T05:29:53;99075.33;;;8.03;83.97
12536;BME280;6334;48.696;2.114;2023-04-15T05:32:23;99075.58;;;7.88;84.97
12536;BME280;6334;48.696;2.114;2023-04-15T05:34:54;99082.44;;;7.89;85.19
12536;BME280;6334;48.696;2.114;2023-04-15T05:37:24;99084.72;;;8.02;83.89
12536;BME280;6334;48.696;2.114;2023-04-15T05:39:55;99091.66;;;8.08;83.99
12536;BME280;6334;48.696;2.114;2023-04-15T05:42:26;99102.42;;;8.12;84.06
12536;BME280;6334;48.696;2.114;2023-04-15T05:44:56;99096.92;;;8.09;84.19
12536;BME280;6334;48.696;2.114;2023-04-15T05:47:27;99117.19;;;7.90;84.54
12536;BME280;6334;48.696;2.114;2023-04-15T05:49:57;99105.03;;;7.90;85.34
12536;BME280;6334;48.696;2.114;2023-04-15T05:52:28;99115.27;;;8.12;84.29
12536;BME280;6334;48.696;2.114;2023-04-15T05:54:58;99126.33;;;8.15;84.65
12536;BME280;6334;48.696;2.114;2023-04-15T05:57:29;99128.30;;;8.21;83.49
12536;BME280;6334;48.696;2.114;2023-04-15T05:59:59;99135.76;;;8.20;84.18
12536;BME280;6334;48.696;2.114;2023-04-15T06:02:30;99147.16;;;8.12;84.74
12536;BME280;6334;48.696;2.114;2023-04-15T06:05:00;99146.14;;;8.24;83.85
12536;BME280;6334;48.696;2.114;2023-04-15T06:07:31;99143.60;;;8.06;84.01
12536;BME280;6334;48.696;2.114;2023-04-15T06:10:02;99148.96;;;8.03;84.73
12536;BME280;6334;48.696;2.114;2023-04-15T06:12:32;99156.77;;;8.24;84.21
12536;BME280;6334;48.696;2.114;2023-04-15T06:15:02;99164.40;;;8.37;83.65
12536;BME280;6334;48.696;2.114;2023-04-15T06:17:32;99169.32;;;8.35;83.74
12536;BME280;6334;48.696;2.114;2023-04-15T06:20:06;99177.55;;;8.38;83.87
12536;BME280;6334;48.696;2.114;2023-04-15T06:22:36;99187.55;;;8.30;84.02
12536;BME280;6334;48.696;2.114;2023-04-15T06:25:08;99186.34;;;8.27;84.49
12536;BME280;6334;48.696;2.114;2023-04-15T06:27:38;99196.24;;;8.25;84.63
12536;BME280;6334;48.696;2.114;2023-04-15T06:30:09;99201.01;;;8.24;84.79
12536;BME280;6334;48.696;2.114;2023-04-15T06:32:39;99200.52;;;8.02;85.64
12536;BME280;6334;48.696;2.114;2023-04-15T06:35:10;99206.55;;;8.18;84.85
12536;BME280;6334;48.696;2.114;2023-04-15T06:37:40;99205.38;;;8.25;84.73
12536;BME280;6334;48.696;2.114;2023-04-15T06:40:11;99207.16;;;8.36;84.41
12536;BME280;6334;48.696;2.114;2023-04-15T06:42:41;99219.73;;;8.34;84.21
12536;BME280;6334;48.696;2.114;2023-04-15T06:45:13;99233.67;;;8.17;85.55
12536;BME280;6334;48.696;2.114;2023-04-15T06:47:43;99227.28;;;8.23;85.60
12536;BME280;6334;48.696;2.114;2023-04-15T06:50:14;99242.58;;;8.41;84.85
12536;BME280;6334;48.696;2.114;2023-04-15T06:52:44;99242.81;;;8.26;85.63
12536;BME280;6334;48.696;2.114;2023-04-15T06:55:14;99255.91;;;8.36;84.85
12536;BME280;6334;48.696;2.114;2023-04-15T06:57:46;99255.48;;;8.43;84.89
12536;BME280;6334;48.696;2.114;2023-04-15T07:00:17;99260.72;;;8.41;84.92
12536;BME280;6334;48.696;2.114;2023-04-15T07:02:47;99263.30;;;8.40;84.60
12536;BME280;6334;48.696;2.114;2023-04-15T07:05:18;99265.47;;;8.29;85.44
12536;BME280;6334;48.696;2.114;2023-04-15T07:07:48;99271.27;;;8.29;85.10
12536;BME280;6334;48.696;2.114;2023-04-15T07:10:19;99285.08;;;8.09;85.41
12536;BME280;6334;48.696;2.114;2023-04-15T07:12:50;99288.34;;;8.30;84.66
12536;BME280;6334;48.696;2.114;2023-04-15T07:15:20;99294.55;;;8.16;85.43
12536;BME280;6334;48.696;2.114;2023-04-15T07:17:51;99303.14;;;8.18;84.99
12536;BME280;6334;48.696;2.114;2023-04-15T07:20:21;99309.08;;;8.22;84.66
12536;BME280;6334;48.696;2.114;2023-04-15T07:22:52;99310.47;;;8.28;85.23
12536;BME280;6334;48.696;2.114;2023-04-15T07:25:22;99325.64;;;8.33;84.72
12536;BME280;6334;48.696;2.114;2023-04-15T07:27:53;99327.55;;;8.04;85.81
12536;BME280;6334;48.696;2.114;2023-04-15T07:30:23;99330.70;;;8.11;85.82
12536;BME280;6334;48.696;2.114;2023-04-15T07:32:54;99337.34;;;8.31;84.63
12536;BME280;6334;48.696;2.114;2023-04-15T07:35:24;99349.22;;;8.36;84.37
12536;BME280;6334;48.696;2.114;2023-04-15T07:37:55;99342.25;;;8.13;84.07
12536;BME280;6334;48.696;2.114;2023-04-15T07:40:25;99349.67;;;8.14;84.93
12536;BME280;6334;48.696;2.114;2023-04-15T07:42:55;99352.34;;;8.34;84.32
12536;BME280;6334;48.696;2.114;2023-04-15T07:45:26;99354.57;;;8.33;83.02
12536;BME280;6334;48.696;2.114;2023-04-15T07:47:56;99363.26;;;8.43;83.75
12536;BME280;6334;48.696;2.114;2023-04-15T07:50:27;99371.45;;;8.34;83.82
12536;BME280;6334;48.696;2.114;2023-04-15T07:52:57;99378.77;;;8.28;83.81
12536;BME280;6334;48.696;2.114;2023-04-15T07:55:28;99375.33;;;8.12;84.34
12536;BME280;6334;48.696;2.114;2023-04-15T07:57:58;99387.30;;;8.21;84.33
12536;BME280;6334;48.696;2.114;2023-04-15T08:00:29;99395.91;;;8.22;84.45
12536;BME280;6334;48.696;2.114;2023-04-15T08:02:59;99401.84;;;8.38;84.09
12536;BME280;6334;48.696;2.114;2023-04-15T08:05:30;99406.82;;;8.23;84.23
12536;BME280;6334;48.696;2.114;2023-04-15T08:08:00;99411.02;;;8.28;84.45
12536;BME280;6334;48.696;2.114;2023-04-15T08:10:30;99424.00;;;8.27;83.80
12536;BME280;6334;48.696;2.114;2023-04-15T08:13:01;99417.47;;;8.48;83.84
12536;BME280;6334;48.696;2.114;2023-04-15T08:15:31;99426.30;;;8.45;83.68
12536;BME280;6334;48.696;2.114;2023-04-15T08:18:02;99429.95;;;8.36;84.24
12536;BME280;6334;48.696;2.114;2023-04-15T08:20:32;99433.38;;;8.20;84.33
12536;BME280;6334;48.696;2.114;2023-04-15T08:23:03;99445.66;;;8.25;84.06
12536;BME280;6334;48.696;2.114;2023-04-15T08:25:33;99447.17;;;8.24;83.64
12536;BME280;6334;48.696;2.114;2023-04-15T08:28:04;99458.19;;;8.31;84.19
12536;BME280;6334;48.696;2.114;2023-04-15T08:30:34;99452.67;;;8.44;85.40
12536;BME280;6334;48.696;2.114;2023-04-15T08:33:05;99462.50;;;8.96;82.29
12536;BME280;6334;48.696;2.114;2023-04-15T08:35:35;99467.78;;;8.26;84.29
12536;BME280;6334;48.696;2.114;2023-04-15T08:38:06;99466.60;;;8.34;83.83
12536;BME280;6334;48.696;2.114;2023-04-15T08:40:43;99474.36;;;8.54;84.21
12536;BME280;6334;48.696;2.114;2023-04-15T08:43:22;99475.48;;;8.43;83.55
12536;BME280;6334;48.696;2.114;2023-04-15T08:45:43;99481.29;;;8.40;83.59
12536;BME280;6334;48.696;2.114;2023-04-15T08:48:13;99491.47;;;8.27;83.48
12536;BME280;6334;48.696;2.114;2023-04-15T08:50:45;99507.97;;;8.45;83.74
12536;BME280;6334;48.696;2.114;2023-04-15T08:53:15;99500.30;;;8.31;83.82
12536;BME280;6334;48.696;2.114;2023-04-15T08:55:46;99504.87;;;8.35;84.50
12536;BME280;6334;48.696;2.114;2023-04-15T08:58:16;99506.48;;;8.35;84.20
12536;BME280;6334;48.696;2.114;2023-04-15T09:00:46;99512.63;;;8.40;84.28
12536;BME280;6334;48.696;2.114;2023-04-15T09:03:18;99523.42;;;8.39;84.34
12536;BME280;6334;48.696;2.114;2023-04-15T09:05:48;99526.48;;;8.24;85.01
12536;BME280;6334;48.696;2.114;2023-04-15T09:08:19;99526.77;;;8.12;84.85
12536;BME280;6334;48.696;2.114;2023-04-15T09:10:49;99535.70;;;8.27;83.90
12536;BME280;6334;48.696;2.114;2023-04-15T09:13:20;99540.25;;;8.14;85.00
12536;BME280;6334;48.696;2.114;2023-04-15T09:15:50;99543.30;;;8.16;85.23
12536;BME280;6334;48.696;2.114;2023-04-15T09:18:30;99556.20;;;8.28;84.98
12536;BME280;6334;48.696;2.114;2023-04-15T09:21:11;99555.78;;;8.35;84.37
12536;BME280;6334;48.696;2.114;2023-04-15T09:23:50;99566.92;;;8.41;84.12
12536;BME280;6334;48.696;2.114;2023-04-15T09:26:10;99575.05;;;8.48;83.64
12536;BME280;6334;48.696;2.114;2023-04-15T09:28:41;99580.74;;;8.52;83.84
12536;BME280;6334;48.696;2.114;2023-04-15T09:31:11;99584.92;;;8.55;84.01
12536;BME280;6334;48.696;2.114;2023-04-15T09:33:53;99591.26;;;8.35;84.16
12536;BME280;6334;48.696;2.114;2023-04-15T09:36:12;99589.48;;;8.30;84.78
12536;BME280;6334;48.696;2.114;2023-04-15T09:38:55;99602.52;;;8.25;84.50
12536;BME280;6334;48.696;2.114;2023-04-15T09:41:25;99605.63;;;8.42;84.32
12536;BME280;6334;48.696;2.114;2023-04-15T09:43:55;99610.03;;;8.57;84.48
12536;BME280;6334;48.696;2.114;2023-04-15T09:46:46;99615.55;;;8.33;84.71
12536;BME280;6334;48.696;2.114;2023-04-15T09:49:08;99628.35;;;8.65;84.26
12536;BME280;6334;48.696;2.114;2023-04-15T09:51:39;99631.41;;;8.50;84.85
12536;BME280;6334;48.696;2.114;2023-04-15T09:54:09;99631.55;;;8.44;84.52
12536;BME280;6334;48.696;2.114;2023-04-15T09:56:40;99641.31;;;8.56;85.30
12536;BME280;6334;48.696;2.114;2023-04-15T09:59:10;99643.67;;;8.83;84.15
12536;BME280;6334;48.696;2.114;2023-04-15T10:01:41;99636.80;;;9.12;83.95
12536;BME280;6334;48.696;2.114;2023-04-15T10:04:11;99656.36;;;9.07;84.46
12536;BME280;6334;48.696;2.114;2023-04-15T10:06:42;99653.58;;;8.96;84.84
12536;BME280;6334;48.696;2.114;2023-04-15T10:09:12;99663.55;;;9.16;84.03
12536;BME280;6334;48.696;2.114;2023-04-15T10:11:43;99655.63;;;9.26;83.84
12536;BME280;6334;48.696;2.114;2023-04-15T10:14:13;99668.27;;;9.08;83.73
12536;BME280;6334;48.696;2.114;2023-04-15T10:16:43;99678.27;;;9.33;82.81
12536;BME280;6334;48.696;2.114;2023-04-15T10:19:14;99676.50;;;9.48;83.55
12536;BME280;6334;48.696;2.114;2023-04-15T10:21:44;99678.20;;;9.44;82.77
12536;BME280;6334;48.696;2.114;2023-04-15T10:24:15;99678.64;;;9.36;83.06
12536;BME280;6334;48.696;2.114;2023-04-15T10:26:45;99684.12;;;9.16;83.37
12536;BME280;6334;48.696;2.114;2023-04-15T10:29:16;99689.52;;;9.24;83.68
12536;BME280;6334;48.696;2.114;2023-04-15T10:31:46;99693.58;;;9.23;84.21
12536;BME280;6334;48.696;2.114;2023-04-15T10:34:17;99700.49;;;9.29;83.42
12536;BME280;6334;48.696;2.114;2023-04-15T10:36:47;99706.73;;;9.34;82.57
12536;BME280;6334;48.696;2.114;2023-04-15T10:42:17;99714.61;;;9.07;82.50
12536;BME280;6334;48.696;2.114;2023-04-15T10:44:49;99721.02;;;9.19;81.92
12536;BME280;6334;48.696;2.114;2023-04-15T10:47:19;99722.17;;;9.33;82.32
12536;BME280;6334;48.696;2.114;2023-04-15T10:49:56;99730.80;;;9.33;82.11
12536;BME280;6334;48.696;2.114;2023-04-15T10:52:26;99731.87;;;9.21;82.18
12536;BME280;6334;48.696;2.114;2023-04-15T10:55:17;99734.24;;;9.23;82.23
12536;BME280;6334;48.696;2.114;2023-04-15T10:57:44;99746.30;;;9.36;81.44
12536;BME280;6334;48.696;2.114;2023-04-15T11:00:15;99747.33;;;9.47;81.13
12536;BME280;6334;48.696;2.114;2023-04-15T11:02:45;99754.67;;;9.52;81.27
12536;BME280;6334;48.696;2.114;2023-04-15T11:05:15;99754.20;;;9.63;81.29
12536;BME280;6334;48.696;2.114;2023-04-15T11:12:57;99769.53;;;9.67;81.36
12536;BME280;6334;48.696;2.114;2023-04-15T11:15:29;99774.83;;;9.54;81.65
12536;BME280;6334;48.696;2.114;2023-04-15T11:18:09;99773.66;;;9.56;80.86
12536;BME280;6334;48.696;2.114;2023-04-15T11:20:39;99777.11;;;9.65;80.77
12536;BME280;6334;48.696;2.114;2023-04-15T11:23:09;99781.45;;;9.69;81.31
12536;BME280;6334;48.696;2.114;2023-04-15T11:25:41;99790.27;;;9.61;81.53
12536;BME280;6334;48.696;2.114;2023-04-15T11:28:11;99790.98;;;9.65;80.11
12536;BME280;6334;48.696;2.114;2023-04-15T11:30:42;99792.47;;;9.57;80.98
12536;BME280;6334;48.696;2.114;2023-04-15T11:33:12;99787.83;;;9.70;81.43
12536;BME280;6334;48.696;2.114;2023-04-15T11:35:43;99797.94;;;9.72;80.55
12536;BME280;6334;48.696;2.114;2023-04-15T11:38:13;99801.30;;;9.62;81.55
12536;BME280;6334;48.696;2.114;2023-04-15T11:40:44;99805.89;;;9.66;79.80
12536;BME280;6334;48.696;2.114;2023-04-15T11:43:21;99801.63;;;9.82;79.19
12536;BME280;6334;48.696;2.114;2023-04-15T11:45:54;99809.84;;;9.97;79.36
12536;BME280;6334;48.696;2.114;2023-04-15T11:48:30;99820.42;;;9.94;79.92
12536;BME280;6334;48.696;2.114;2023-04-15T11:51:03;99824.58;;;10.07;77.81
12536;BME280;6334;48.696;2.114;2023-04-15T11:53:42;99821.11;;;10.30;79.30
12536;BME280;6334;48.696;2.114;2023-04-15T11:56:23;99827.44;;;10.17;78.56
12536;BME280;6334;48.696;2.114;2023-04-15T11:58:56;99833.39;;;10.40;77.49
12536;BME280;6334;48.696;2.114;2023-04-15T12:01:36;99835.89;;;10.24;79.10
12536;BME280;6334;48.696;2.114;2023-04-15T12:04:17;99841.53;;;10.20;78.51
12536;BME280;6334;48.696;2.114;2023-04-15T12:06:47;99852.67;;;10.08;76.24
12536;BME280;6334;48.696;2.114;2023-04-15T12:09:20;99845.47;;;10.18;76.67
12536;BME280;6334;48.696;2.114;2023-04-15T12:11:51;99857.87;;;10.44;76.56
12536;BME280;6334;48.696;2.114;2023-04-15T12:14:25;99856.59;;;10.46;76.29
12536;BME280;6334;48.696;2.114;2023-04-15T12:17:01;99863.63;;;10.59;75.64
12536;BME280;6334;48.696;2.114;2023-04-15T12:19:40;99863.06;;;10.91;77.11
12536;BME280;6334;48.696;2.114;2023-04-15T12:22:10;99867.06;;;10.90;75.56
12536;BME280;6334;48.696;2.114;2023-04-15T12:24:40;99874.72;;;11.02;76.57
12536;BME280;6334;48.696;2.114;2023-04-15T12:27:10;99882.69;;;10.92;75.89
12536;BME280;6334;48.696;2.114;2023-04-15T12:29:41;99882.56;;;10.99;75.25
12536;BME280;6334;48.696;2.114;2023-04-15T12:32:16;99888.63;;;11.10;74.74
12536;BME280;6334;48.696;2.114;2023-04-15T12:34:50;99888.65;;;11.24;74.15
12536;BME280;6334;48.696;2.114;2023-04-15T12:37:21;99895.28;;;10.90;74.94
12536;BME280;6334;48.696;2.114;2023-04-15T12:39:52;99898.47;;;11.00;73.81
12536;BME280;6334;48.696;2.114;2023-04-15T12:42:22;99900.12;;;11.06;74.80
12536;BME280;6334;48.696;2.114;2023-04-15T12:44:53;99902.67;;;11.16;73.32
12536;BME280;6334;48.696;2.114;2023-04-15T12:47:25;99914.05;;;11.13;73.12
12536;BME280;6334;48.696;2.114;2023-04-15T12:49:55;99913.89;;;11.19;73.09
12536;BME280;6334;48.696;2.114;2023-04-15T12:52:25;99915.48;;;11.47;74.35
12536;BME280;6334;48.696;2.114;2023-04-15T12:54:56;99927.14;;;11.53;73.02
12536;BME280;6334;48.696;2.114;2023-04-15T12:57:26;99926.63;;;11.40;72.78
12536;BME280;6334;48.696;2.114;2023-04-15T12:59:57;99925.14;;;11.28;72.65
12536;BME280;6334;48.696;2.114;2023-04-15T13:02:27;99937.30;;;11.29;72.90
12536;BME280;6334;48.696;2.114;2023-04-15T13:04:58;99939.45;;;11.03;72.86
12536;BME280;6334;48.696;2.114;2023-04-15T13:07:28;99940.87;;;11.24;73.31
12536;BME280;6334;48.696;2.114;2023-04-15T13:10:00;99946.97;;;11.22;73.41
12536;BME280;6334;48.696;2.114;2023-04-15T13:12:31;99948.31;;;11.12;72.40
12536;BME280;6334;48.696;2.114;2023-04-15T13:15:03;99954.50;;;11.20;71.36
12536;BME280;6334;48.696;2.114;2023-04-15T13:17:32;99968.75;;;11.04;71.92
12536;BME280;6334;48.696;2.114;2023-04-15T13:20:02;99975.56;;;11.31;71.60
12536;BME280;6334;48.696;2.114;2023-04-15T13:22:32;99973.19;;;11.23;68.95
12536;BME280;6334;48.696;2.114;2023-04-15T13:25:06;99980.58;;;11.36;71.05
12536;BME280;6334;48.696;2.114;2023-04-15T13:27:40;99989.31;;;11.25;69.51
12536;BME280;6334;48.696;2.114;2023-04-15T13:30:10;99982.80;;;11.22;70.74
12536;BME280;6334;48.696;2.114;2023-04-15T13:32:42;99988.83;;;11.18;71.14
12536;BME280;6334;48.696;2.114;2023-04-15T13:35:12;99995.36;;;10.88;73.11
12536;BME280;6334;48.696;2.114;2023-04-15T13:37:43;99998.19;;;10.81;73.41
12536;BME280;6334;48.696;2.114;2023-04-15T13:40:13;100005.73;;;11.01;72.66
12536;BME280;6334;48.696;2.114;2023-04-15T13:42:44;100014.41;;;10.82;72.12
12536;BME280;6334;48.696;2.114;2023-04-15T13:45:14;100011.56;;;10.77;72.29
12536;BME280;6334;48.696;2.114;2023-04-15T13:47:45;100014.63;;;10.90;72.83